Brownsville, Texas
Current Conditions -  °F | °C
As of 11:53 AM on Monday 24 Nov 2014 (Local Time) from KBRO Reporting Station
Clear Clear  
Wind Chill: 66°   Ceiling: Unl
Heat Index: 66°   Visibility: 10mi
Dew Point: 50°   Wind: 16mph
Humidity: 56%   Direction: 360°N
Pressure: 30.04"   Gusts: 29mph
Location:  25.9°N, 97.49°W
Report Text: KBRO 241753Z 36014G25KT 10SM CLR 19/10 A3004 RMK AO2 PK WND 01027/1714 SLP171 T01890100 10206 20172 50016
Loading
Personal Weather Stations






























Interactive Weather Map New forecast layout! Learn more

10-Day Weather Forecast

Advertisements
Track Severe Weather on mobile